Time;durP1;ratioP1;P1;durP2;ratioP2;P2;SDS_P1;SDS_P2;PMS_P1;PMS_P2;Temp;Humidity;BMP_temperature;BMP_pressure;BME280_temperature;BME280_humidity;BME280_pressure;Samples;Min_cycle;Max_cycle;Signal;HPM_P1;HPM_P2
2021/11/24 00:00:57;;;;;;;6.15;3.35;;;15.30;86.20;;;;;;4061301;29;20055;-64
2021/11/24 00:03:19;;;;;;;5.20;3.83;;;15.30;86.30;;;;;;4061218;29;20081;-64
2021/11/24 00:05:42;;;;;;;4.72;3.55;;;15.30;86.40;;;;;;4061444;29;20167;-65
2021/11/24 00:08:05;;;;;;;4.93;3.20;;;15.30;86.40;;;;;;4061328;29;20048;-64
2021/11/24 00:10:31;;;;;;;4.38;3.78;;;15.30;86.40;;;;;;4061202;29;20146;-65
2021/11/24 00:12:54;;;;;;;6.88;3.88;;;15.30;86.60;;;;;;4060768;29;20044;-65
2021/11/24 00:15:16;;;;;;;5.55;3.83;;;15.30;86.60;;;;;;4061329;29;20068;-65
2021/11/24 00:17:39;;;;;;;5.70;3.47;;;15.30;86.80;;;;;;4061201;29;20052;-65
2021/11/24 00:20:01;;;;;;;4.32;3.92;;;15.30;86.80;;;;;;4060606;29;20111;-64
2021/11/24 00:22:23;;;;;;;5.13;3.47;;;15.30;86.80;;;;;;4061075;29;20071;-65
2021/11/24 00:24:46;;;;;;;4.00;3.65;;;15.30;87.00;;;;;;4060688;29;20067;-65
2021/11/24 00:27:08;;;;;;;3.92;3.63;;;15.30;86.90;;;;;;4061452;29;20044;-64
2021/11/24 00:29:31;;;;;;;4.63;3.75;;;15.20;86.90;;;;;;4059840;29;20063;-64
2021/11/24 00:31:53;;;;;;;4.07;3.63;;;15.20;87.00;;;;;;4060998;29;20584;-64
2021/11/24 00:34:15;;;;;;;5.07;3.30;;;15.20;87.00;;;;;;4061072;29;20089;-64
2021/11/24 00:36:38;;;;;;;3.40;3.10;;;15.20;86.90;;;;;;4060909;29;20134;-64
2021/11/24 00:39:00;;;;;;;4.15;2.85;;;15.20;86.90;;;;;;4060786;29;20496;-64
2021/11/24 00:41:22;;;;;;;6.25;3.20;;;15.20;86.90;;;;;;4060440;29;20067;-65
2021/11/24 00:43:44;;;;;;;3.63;3.25;;;15.20;86.80;;;;;;4060351;29;20062;-64
2021/11/24 00:46:07;;;;;;;3.20;2.75;;;15.20;86.70;;;;;;4060507;29;20139;-64
2021/11/24 00:48:29;;;;;;;4.18;3.05;;;15.20;86.40;;;;;;4060355;29;20310;-64
2021/11/24 00:50:52;;;;;;;4.82;3.05;;;15.20;85.80;;;;;;4059975;29;20104;-64
2021/11/24 00:53:14;;;;;;;4.78;3.20;;;15.20;87.60;;;;;;4059659;29;20047;-64
2021/11/24 00:55:36;;;;;;;6.10;3.20;;;15.30;88.20;;;;;;4060849;29;20056;-64
2021/11/24 00:57:58;;;;;;;2.85;2.58;;;15.40;88.20;;;;;;4060196;29;20072;-65
2021/11/24 01:00:21;;;;;;;4.15;2.63;;;15.50;87.90;;;;;;4060662;29;20130;-64
2021/11/24 01:02:45;;;;;;;3.95;2.67;;;15.50;87.80;;;;;;4060409;29;20059;-64
2021/11/24 01:05:08;;;;;;;2.42;2.10;;;15.60;87.40;;;;;;4060503;29;20063;-69
2021/11/24 01:07:30;;;;;;;5.72;2.55;;;15.60;87.30;;;;;;4060020;29;20136;-69
2021/11/24 01:09:52;;;;;;;4.10;2.65;;;15.60;87.00;;;;;;4059840;29;20051;-68
2021/11/24 01:12:14;;;;;;;3.22;2.55;;;15.60;86.90;;;;;;4060763;29;20488;-68
2021/11/24 01:14:37;;;;;;;3.25;2.10;;;15.70;86.90;;;;;;4059755;29;20052;-67
2021/11/24 01:16:59;;;;;;;2.85;2.50;;;15.70;86.80;;;;;;4060861;29;20119;-64
2021/11/24 01:19:22;;;;;;;3.20;2.67;;;15.60;86.70;;;;;;4060462;29;20067;-65
2021/11/24 01:21:45;;;;;;;2.42;2.22;;;15.60;86.60;;;;;;4060213;29;20055;-65
2021/11/24 01:24:08;;;;;;;4.25;2.88;;;15.60;86.70;;;;;;4059912;29;20051;-66
2021/11/24 01:26:30;;;;;;;2.85;2.58;;;15.60;86.60;;;;;;4059958;29;20115;-64
2021/11/24 01:28:52;;;;;;;2.65;2.53;;;15.60;86.70;;;;;;4060229;29;20052;-64
2021/11/24 01:31:14;;;;;;;4.38;2.60;;;15.60;86.80;;;;;;4060027;29;20051;-64
2021/11/24 01:33:36;;;;;;;2.85;2.55;;;15.60;87.20;;;;;;4060123;29;20048;-64
2021/11/24 01:36:00;;;;;;;4.40;2.75;;;15.60;87.40;;;;;;4059733;29;20056;-64
2021/11/24 01:38:22;;;;;;;3.25;2.55;;;15.70;87.30;;;;;;4059967;29;20449;-65
2021/11/24 01:40:44;;;;;;;2.30;2.10;;;15.70;87.20;;;;;;4059221;29;20134;-64
2021/11/24 01:43:08;;;;;;;5.13;2.42;;;15.70;87.10;;;;;;4060240;29;20048;-64
2021/11/24 01:45:30;;;;;;;2.25;1.95;;;15.80;86.90;;;;;;4060321;29;20059;-64
2021/11/24 01:47:53;;;;;;;5.47;2.60;;;15.80;86.70;;;;;;4050830;29;20136;-65
2021/11/24 01:50:16;;;;;;;3.10;2.53;;;15.80;86.60;;;;;;4058577;29;20059;-65
2021/11/24 01:52:40;;;;;;;5.53;2.25;;;15.80;86.60;;;;;;4059825;29;20048;-65
2021/11/24 01:55:04;;;;;;;2.65;2.15;;;15.80;86.40;;;;;;4060316;29;20567;-65
2021/11/24 01:57:27;;;;;;;3.55;2.20;;;15.70;86.30;;;;;;4059646;29;20492;-64
2021/11/24 01:59:49;;;;;;;2.42;2.17;;;15.70;86.30;;;;;;4060010;29;20127;-65
2021/11/24 02:02:12;;;;;;;3.42;2.10;;;15.80;86.50;;;;;;4060502;29;20056;-65
2021/11/24 02:04:34;;;;;;;3.58;2.22;;;15.70;86.50;;;;;;4059798;29;20048;-65
2021/11/24 02:06:57;;;;;;;7.03;2.58;;;15.70;86.50;;;;;;4059568;29;20466;-64
2021/11/24 02:09:21;;;;;;;2.67;2.20;;;15.70;86.50;;;;;;4059417;29;20054;-64
2021/11/24 02:11:45;;;;;;;2.13;1.92;;;15.60;87.30;;;;;;4059555;29;20064;-64
2021/11/24 02:14:08;;;;;;;3.83;1.92;;;15.60;86.50;;;;;;4059500;29;20067;-64
2021/11/24 02:16:30;;;;;;;2.05;1.90;;;15.60;86.80;;;;;;4059507;29;20450;-65
2021/11/24 02:18:52;;;;;;;4.05;2.00;;;15.60;86.90;;;;;;4059286;29;20151;-64
2021/11/24 02:21:17;;;;;;;2.60;1.92;;;15.60;86.90;;;;;;4059067;29;20055;-65
2021/11/24 02:23:40;;;;;;;4.20;1.70;;;15.60;86.80;;;;;;4059447;29;20518;-64
2021/11/24 02:26:02;;;;;;;3.22;1.95;;;15.50;86.60;;;;;;4059317;29;20060;-64
2021/11/24 02:28:24;;;;;;;3.70;1.80;;;15.50;87.00;;;;;;4059380;29;20040;-64
2021/11/24 02:30:46;;;;;;;3.85;2.10;;;15.50;87.70;;;;;;4060034;29;20055;-64
2021/11/24 02:33:09;;;;;;;4.13;2.08;;;15.60;87.70;;;;;;4059525;29;20115;-64
2021/11/24 02:35:30;;;;;;;1.63;1.52;;;15.70;87.50;;;;;;4059728;29;20584;-65
2021/11/24 02:37:54;;;;;;;2.05;1.80;;;15.70;87.20;;;;;;4059564;29;20048;-65
2021/11/24 02:40:17;;;;;;;4.10;1.48;;;15.80;86.80;;;;;;4059333;29;20055;-65
2021/11/24 02:42:40;;;;;;;2.28;1.58;;;15.80;86.50;;;;;;4059407;29;20474;-65
2021/11/24 02:45:02;;;;;;;1.77;1.45;;;15.80;86.30;;;;;;4059174;29;20058;-64
2021/11/24 02:47:25;;;;;;;1.80;1.60;;;15.80;86.30;;;;;;4058942;29;20055;-64
2021/11/24 02:49:51;;;;;;;2.45;1.27;;;15.80;86.10;;;;;;4060082;29;20056;-65
2021/11/24 02:52:13;;;;;;;2.30;1.00;;;15.80;86.10;;;;;;4059378;29;20059;-65
2021/11/24 02:54:38;;;;;;;3.17;1.30;;;15.80;86.10;;;;;;4062278;29;20052;-64
2021/11/24 02:57:00;;;;;;;2.08;1.48;;;15.80;86.10;;;;;;4061930;29;20062;-65
2021/11/24 02:59:22;;;;;;;2.15;1.40;;;15.70;86.10;;;;;;4062214;29;20055;-65
2021/11/24 03:01:44;;;;;;;1.13;1.02;;;15.70;86.10;;;;;;4064063;29;20056;-65
2021/11/24 03:04:07;;;;;;;1.55;1.42;;;15.70;86.60;;;;;;4064645;29;20063;-65
2021/11/24 03:06:29;;;;;;;4.45;1.50;;;15.70;86.90;;;;;;4065489;29;20107;-65
2021/11/24 03:08:51;;;;;;;1.27;1.27;;;15.80;86.50;;;;;;4064481;29;20048;-65
2021/11/24 03:11:15;;;;;;;4.15;2.08;;;15.90;86.00;;;;;;4048744;29;20052;-65
2021/11/24 03:13:37;;;;;;;1.90;1.10;;;15.90;85.60;;;;;;4049212;29;20079;-65
2021/11/24 03:15:59;;;;;;;2.35;1.00;;;16.00;86.30;;;;;;4048860;29;20141;-65
2021/11/24 03:18:21;;;;;;;1.65;1.30;;;16.00;85.20;;;;;;4049205;29;20075;-65
2021/11/24 03:20:45;;;;;;;2.80;1.20;;;16.00;84.80;;;;;;4079872;29;20134;-65
2021/11/24 03:23:08;;;;;;;0.93;0.93;;;16.00;84.60;;;;;;4071780;29;20519;-65
2021/11/24 03:25:30;;;;;;;1.58;1.00;;;16.00;84.40;;;;;;4064305;29;20497;-65
2021/11/24 03:27:54;;;;;;;2.35;1.10;;;16.00;84.20;;;;;;4064252;29;20055;-65
2021/11/24 03:30:19;;;;;;;1.20;1.10;;;16.00;84.40;;;;;;4076080;29;20052;-65
2021/11/24 03:32:41;;;;;;;2.22;1.02;;;15.90;84.60;;;;;;4079604;29;20056;-65
2021/11/24 03:35:07;;;;;;;1.83;1.10;;;15.90;84.80;;;;;;4079938;29;20130;-64
2021/11/24 03:37:29;;;;;;;1.48;1.38;;;15.90;85.00;;;;;;4080020;29;20138;-65
2021/11/24 03:39:52;;;;;;;3.17;1.20;;;15.90;85.00;;;;;;4078053;29;20470;-65
2021/11/24 03:42:15;;;;;;;1.80;1.52;;;15.90;84.80;;;;;;4079941;29;20051;-64
2021/11/24 03:44:38;;;;;;;1.48;0.90;;;15.90;84.70;;;;;;4079492;29;20051;-64
2021/11/24 03:47:01;;;;;;;3.45;1.00;;;16.00;84.60;;;;;;4079801;29;20048;-64
2021/11/24 03:49:23;;;;;;;1.15;1.05;;;16.00;84.90;;;;;;4071918;29;20059;-64
2021/11/24 03:51:44;;;;;;;2.58;1.58;;;16.00;85.90;;;;;;4063399;29;20052;-65
2021/11/24 03:54:09;;;;;;;0.93;0.90;;;16.10;85.60;;;;;;4063800;29;20044;-64
2021/11/24 03:56:31;;;;;;;2.83;1.00;;;16.10;84.50;;;;;;4070152;29;20113;-65
2021/11/24 03:58:53;;;;;;;1.42;1.00;;;16.20;84.10;;;;;;4074163;29;20056;-65
2021/11/24 04:01:17;;;;;;;1.27;0.85;;;16.20;83.80;;;;;;4064183;29;20051;-65
2021/11/24 04:03:39;;;;;;;2.80;1.20;;;16.20;83.70;;;;;;4063676;29;20056;-65
2021/11/24 04:06:01;;;;;;;1.33;1.15;;;16.20;83.70;;;;;;4064100;29;20082;-65
2021/11/24 04:08:23;;;;;;;2.85;0.85;;;16.10;83.60;;;;;;4064848;29;20048;-65
2021/11/24 04:10:45;;;;;;;1.00;1.00;;;16.10;83.60;;;;;;4079344;29;20051;-65
2021/11/24 04:13:07;;;;;;;2.67;0.90;;;16.10;83.80;;;;;;4065078;29;20060;-66
2021/11/24 04:15:29;;;;;;;1.42;0.88;;;16.00;83.80;;;;;;4063253;29;20107;-66
2021/11/24 04:17:53;;;;;;;1.60;0.95;;;16.00;84.00;;;;;;4062518;29;20052;-65
2021/11/24 04:20:17;;;;;;;1.00;0.90;;;15.90;84.10;;;;;;4078451;29;20055;-65
2021/11/24 04:22:40;;;;;;;2.25;0.80;;;15.90;84.50;;;;;;4079068;29;20058;-65
2021/11/24 04:25:03;;;;;;;1.75;1.00;;;15.90;84.70;;;;;;4078713;29;20159;-68
2021/11/24 04:27:25;;;;;;;0.80;0.80;;;15.90;84.80;;;;;;4072186;29;20555;-69
2021/11/24 04:29:47;;;;;;;1.58;0.98;;;15.90;84.60;;;;;;4077543;29;20067;-69
2021/11/24 04:32:09;;;;;;;2.78;1.02;;;15.90;84.50;;;;;;4079129;29;20052;-68
2021/11/24 04:34:33;;;;;;;1.52;0.98;;;16.00;84.50;;;;;;4078934;29;20146;-68
2021/11/24 04:36:55;;;;;;;3.92;1.15;;;16.00;84.40;;;;;;4076623;29;20056;-68
2021/11/24 04:39:17;;;;;;;1.52;1.00;;;16.00;84.30;;;;;;4063014;29;20059;-68
2021/11/24 04:41:39;;;;;;;1.05;0.95;;;16.00;84.30;;;;;;4063214;29;20044;-68
2021/11/24 04:44:02;;;;;;;1.25;1.15;;;16.00;84.70;;;;;;4063106;29;20080;-69
2021/11/24 04:46:24;;;;;;;2.10;0.93;;;16.10;84.60;;;;;;4047794;29;20545;-68
2021/11/24 04:48:46;;;;;;;1.92;1.20;;;16.10;84.30;;;;;;4047562;29;20088;-69
2021/11/24 04:51:10;;;;;;;1.13;1.00;;;16.20;83.90;;;;;;4047236;29;20044;-69
2021/11/24 04:53:33;;;;;;;3.83;1.30;;;16.20;83.50;;;;;;4047482;29;20060;-68
2021/11/24 04:55:55;;;;;;;2.05;1.20;;;16.20;83.40;;;;;;4047332;29;20054;-69
2021/11/24 04:58:21;;;;;;;2.30;1.42;;;16.20;83.30;;;;;;4073954;29;20079;-69
2021/11/24 05:00:43;;;;;;;1.52;1.23;;;16.30;83.60;;;;;;4076593;29;20052;-69
2021/11/24 05:03:05;;;;;;;2.65;1.50;;;16.30;83.60;;;;;;4078351;29;20062;-68
2021/11/24 05:05:29;;;;;;;6.85;1.77;;;16.30;83.50;;;;;;4078798;29;20055;-69
2021/11/24 05:07:52;;;;;;;3.13;1.70;;;16.30;83.50;;;;;;4067170;29;20497;-69
2021/11/24 05:10:15;;;;;;;3.22;1.40;;;16.30;83.50;;;;;;4062792;29;20493;-68
2021/11/24 05:12:37;;;;;;;2.00;1.45;;;16.30;83.70;;;;;;4062566;29;20076;-68
2021/11/24 05:15:00;;;;;;;1.52;1.17;;;16.20;83.70;;;;;;4062812;29;20431;-69
2021/11/24 05:17:25;;;;;;;2.92;1.20;;;16.30;83.90;;;;;;4063437;29;20128;-69
2021/11/24 05:19:48;;;;;;;1.83;1.40;;;16.30;83.90;;;;;;4062954;29;20411;-68
2021/11/24 05:22:11;;;;;;;2.05;1.30;;;16.20;84.00;;;;;;4062722;29;20051;-68
2021/11/24 05:24:34;;;;;;;3.03;1.40;;;16.20;83.90;;;;;;4062283;29;20056;-68
2021/11/24 05:26:56;;;;;;;1.30;1.10;;;16.20;84.00;;;;;;4062779;29;20052;-68
2021/11/24 05:29:19;;;;;;;3.50;2.05;;;16.10;84.00;;;;;;4062525;29;20047;-68
2021/11/24 05:31:41;;;;;;;1.95;1.23;;;16.10;84.20;;;;;;4062376;29;20559;-68
2021/11/24 05:34:04;;;;;;;3.63;1.42;;;16.00;84.60;;;;;;4063327;29;20048;-68
2021/11/24 05:36:26;;;;;;;2.17;1.10;;;16.00;85.20;;;;;;4064004;29;20098;-68
2021/11/24 05:38:48;;;;;;;1.75;1.02;;;16.10;86.30;;;;;;4046615;29;20481;-69
2021/11/24 05:41:12;;;;;;;0.98;0.98;;;16.20;85.10;;;;;;4056273;29;20485;-69
2021/11/24 05:43:34;;;;;;;1.52;1.38;;;16.20;84.70;;;;;;4062278;29;20063;-69
2021/11/24 05:46:14;;;;;;;1.20;1.10;;;16.30;84.40;;;;;;4062627;29;20548;-69
2021/11/24 05:48:36;;;;;;;2.67;1.52;;;16.30;84.20;;;;;;4077749;29;20052;-69
2021/11/24 05:50:58;;;;;;;4.00;1.50;;;16.30;84.90;;;;;;4076111;29;20078;-68
2021/11/24 05:53:21;;;;;;;1.50;1.30;;;16.30;83.90;;;;;;4077667;29;20048;-68
2021/11/24 05:55:43;;;;;;;2.15;1.33;;;16.30;83.80;;;;;;4077877;29;20122;-68
2021/11/24 05:58:07;;;;;;;1.30;1.20;;;16.30;83.80;;;;;;4046275;29;20048;-66
2021/11/24 06:00:29;;;;;;;3.40;1.30;;;16.30;83.90;;;;;;4046687;29;20060;-65
2021/11/24 06:02:51;;;;;;;2.58;1.30;;;16.30;83.80;;;;;;4046577;29;20059;-65
2021/11/24 06:05:14;;;;;;;1.73;1.33;;;16.30;83.80;;;;;;4045551;29;20553;-65
2021/11/24 06:07:36;;;;;;;3.03;1.33;;;16.30;83.90;;;;;;4075231;29;20043;-65
2021/11/24 06:09:58;;;;;;;2.88;0.90;;;16.20;83.80;;;;;;4077661;29;20559;-65
2021/11/24 06:12:20;;;;;;;3.97;1.38;;;16.20;84.70;;;;;;4077606;29;20039;-65
2021/11/24 06:14:44;;;;;;;1.90;0.98;;;16.20;83.70;;;;;;4077623;29;20452;-65
2021/11/24 06:17:06;;;;;;;3.33;1.10;;;16.10;84.20;;;;;;4066354;29;20047;-65
2021/11/24 06:19:28;;;;;;;2.47;0.93;;;16.10;84.80;;;;;;4061948;29;20492;-65
2021/11/24 06:21:51;;;;;;;1.70;1.20;;;16.10;84.60;;;;;;4061893;29;20060;-66
2021/11/24 06:24:13;;;;;;;4.28;1.98;;;16.20;84.60;;;;;;4063049;29;20059;-66
2021/11/24 06:26:35;;;;;;;2.67;1.23;;;16.20;84.20;;;;;;4068439;29;20047;-66
2021/11/24 06:28:57;;;;;;;3.08;1.20;;;16.20;84.00;;;;;;4080146;29;20051;-66
2021/11/24 06:31:22;;;;;;;1.65;1.20;;;16.20;84.20;;;;;;4080607;29;20119;-66
2021/11/24 06:33:44;;;;;;;1.50;1.10;;;16.30;84.40;;;;;;4080591;29;20123;-65
2021/11/24 06:36:06;;;;;;;3.13;1.08;;;16.30;84.20;;;;;;4075876;29;20056;-65
2021/11/24 06:38:29;;;;;;;2.35;1.10;;;16.40;83.90;;;;;;4065564;29;20506;-66
2021/11/24 06:40:51;;;;;;;3.22;1.10;;;16.40;83.40;;;;;;4049114;29;20049;-65
2021/11/24 06:43:13;;;;;;;4.95;1.85;;;16.40;83.00;;;;;;4049252;29;20056;-66
2021/11/24 06:45:35;;;;;;;1.60;1.50;;;16.40;82.90;;;;;;4050293;29;20384;-66
2021/11/24 06:47:59;;;;;;;6.63;1.33;;;16.40;82.90;;;;;;4080256;29;20079;-66
2021/11/24 06:50:22;;;;;;;4.38;1.55;;;16.40;83.00;;;;;;4070933;29;20056;-66
2021/11/24 06:52:44;;;;;;;3.85;1.02;;;16.40;83.10;;;;;;4064489;29;20123;-66
2021/11/24 06:55:08;;;;;;;1.20;0.90;;;16.40;83.10;;;;;;4070353;29;20075;-61
2021/11/24 06:57:30;;;;;;;2.25;1.92;;;16.30;83.20;;;;;;4064380;29;20063;-65
2021/11/24 06:59:52;;;;;;;2.25;1.23;;;16.30;83.60;;;;;;4064282;29;20548;-65
2021/11/24 07:02:14;;;;;;;2.05;1.20;;;16.30;83.80;;;;;;4064463;29;20048;-65
2021/11/24 07:04:39;;;;;;;2.65;0.95;;;16.30;83.70;;;;;;4048960;29;20068;-65
2021/11/24 07:07:01;;;;;;;2.47;1.23;;;16.30;83.90;;;;;;4058300;29;20052;-65
2021/11/24 07:09:24;;;;;;;3.40;1.30;;;16.30;84.20;;;;;;4069697;29;20115;-65
2021/11/24 07:11:46;;;;;;;3.05;1.27;;;16.40;83.50;;;;;;4077852;29;20051;-65
2021/11/24 07:14:09;;;;;;;2.67;1.20;;;16.50;84.50;;;;;;4078569;29;20204;-66
2021/11/24 07:16:31;;;;;;;1.63;1.10;;;16.50;82.90;;;;;;4076758;29;20063;-65
2021/11/24 07:18:54;;;;;;;3.28;0.90;;;16.60;82.60;;;;;;4071138;29;20139;-66
2021/11/24 07:21:17;;;;;;;1.20;1.10;;;16.60;82.20;;;;;;4073419;29;20207;-65
2021/11/24 07:23:40;;;;;;;1.92;1.35;;;16.60;81.80;;;;;;4067548;29;20116;-66
2021/11/24 07:26:02;;;;;;;1.45;1.35;;;16.50;81.70;;;;;;4078780;29;20055;-66
2021/11/24 07:28:24;;;;;;;5.00;1.80;;;16.50;81.70;;;;;;4064210;29;20055;-65
2021/11/24 07:30:46;;;;;;;5.13;1.65;;;16.40;81.90;;;;;;4074206;29;20448;-65
2021/11/24 07:33:08;;;;;;;2.60;1.42;;;16.40;82.00;;;;;;4065278;29;20111;-65
2021/11/24 07:35:32;;;;;;;1.48;1.33;;;16.30;82.10;;;;;;4056711;29;20082;-65
2021/11/24 07:37:55;;;;;;;4.40;1.90;;;16.30;82.30;;;;;;4072025;29;20048;-66
2021/11/24 07:40:19;;;;;;;5.13;1.83;;;16.20;82.30;;;;;;4075493;29;20138;-65
2021/11/24 07:42:42;;;;;;;2.25;1.38;;;16.20;82.80;;;;;;4063620;29;20443;-65
2021/11/24 07:45:06;;;;;;;2.63;1.42;;;16.10;82.90;;;;;;4063457;29;20052;-66
2021/11/24 07:47:28;;;;;;;2.28;1.73;;;16.00;83.20;;;;;;4077989;29;20492;-68
2021/11/24 07:49:51;;;;;;;2.10;1.75;;;16.00;83.30;;;;;;4073036;29;20063;-68
2021/11/24 07:52:13;;;;;;;2.90;1.92;;;16.00;83.30;;;;;;4061781;29;20506;-68
2021/11/24 07:54:37;;;;;;;3.33;1.50;;;15.90;83.60;;;;;;4062359;29;20086;-68
2021/11/24 07:56:59;;;;;;;2.88;1.17;;;15.90;83.90;;;;;;4062927;29;20504;-68
2021/11/24 07:59:21;;;;;;;1.35;1.23;;;15.80;83.90;;;;;;4061861;29;20131;-68
2021/11/24 08:01:44;;;;;;;3.55;1.30;;;15.80;83.90;;;;;;4061907;29;20052;-67
2021/11/24 08:04:06;;;;;;;2.35;1.30;;;15.80;84.00;;;;;;4073457;29;20150;-65
2021/11/24 08:06:28;;;;;;;1.98;1.38;;;15.70;84.00;;;;;;4078489;29;20054;-68
2021/11/24 08:08:50;;;;;;;2.22;1.20;;;15.70;84.00;;;;;;4077277;29;20063;-68
2021/11/24 08:11:14;;;;;;;1.23;1.10;;;15.70;84.80;;;;;;4077680;29;20051;-69
2021/11/24 08:13:36;;;;;;;2.42;1.50;;;15.80;84.70;;;;;;4046405;29;20140;-68
2021/11/24 08:15:58;;;;;;;1.40;1.30;;;15.80;84.50;;;;;;4046665;29;20072;-68
2021/11/24 08:18:20;;;;;;;4.38;1.80;;;15.90;84.20;;;;;;4046250;29;20112;-68
2021/11/24 08:20:43;;;;;;;3.17;1.90;;;15.90;83.80;;;;;;4046173;29;20480;-68
2021/11/24 08:23:05;;;;;;;2.40;2.13;;;15.90;83.40;;;;;;4045745;29;20048;-68
2021/11/24 08:25:27;;;;;;;4.18;1.55;;;15.90;83.10;;;;;;4048336;29;20053;-69
2021/11/24 08:27:51;;;;;;;3.15;1.33;;;15.90;83.10;;;;;;4075595;29;20496;-68
2021/11/24 08:30:13;;;;;;;1.85;1.38;;;15.90;82.80;;;;;;4074909;29;20780;-69
2021/11/24 08:32:36;;;;;;;3.50;1.30;;;15.90;82.90;;;;;;4067854;29;20146;-69
2021/11/24 08:34:59;;;;;;;5.40;1.40;;;15.90;82.90;;;;;;4062421;29;20068;-69
2021/11/24 08:37:21;;;;;;;0.90;0.90;;;15.80;82.90;;;;;;4062919;29;20079;-69
2021/11/24 08:39:46;;;;;;;1.77;1.25;;;15.80;83.00;;;;;;4066038;29;20048;-70
2021/11/24 08:42:09;;;;;;;2.63;1.05;;;15.90;82.90;;;;;;4052378;29;20068;-70
2021/11/24 08:44:37;;;;;;;3.10;1.00;;;15.90;82.50;;;;;;4061696;29;20040;-69
2021/11/24 08:46:59;;;;;;;3.55;1.30;;;15.90;82.10;;;;;;4061822;29;20048;-69
2021/11/24 08:49:21;;;;;;;3.28;1.30;;;15.90;81.90;;;;;;4073775;29;20159;-70
2021/11/24 08:51:43;;;;;;;1.27;1.20;;;15.90;81.70;;;;;;4076921;29;20055;-68
2021/11/24 08:54:06;;;;;;;2.22;1.63;;;15.90;81.50;;;;;;4077223;29;20047;-70
2021/11/24 08:56:33;;;;;;;3.10;1.25;;;16.00;80.80;;;;;;4076506;29;20463;-70
2021/11/24 08:58:56;;;;;;;1.77;1.10;;;16.00;80.50;;;;;;4065165;29;20127;-69
2021/11/24 09:01:19;;;;;;;1.70;1.48;;;16.10;80.10;;;;;;4057367;29;20048;-68
2021/11/24 09:03:42;;;;;;;1.70;1.30;;;16.10;79.80;;;;;;4057077;29;20465;-70
2021/11/24 09:06:06;;;;;;;2.88;1.50;;;16.10;79.60;;;;;;4026076;29;20080;-70
2021/11/24 09:08:28;;;;;;;5.28;1.38;;;16.10;79.60;;;;;;4053772;29;20076;-69
2021/11/24 09:10:50;;;;;;;3.05;1.38;;;16.00;79.70;;;;;;4055862;29;20091;-69
2021/11/24 09:13:12;;;;;;;2.55;1.20;;;16.00;79.70;;;;;;4056303;29;20139;-69
2021/11/24 09:15:34;;;;;;;4.57;1.77;;;16.00;80.00;;;;;;4061106;29;20135;-70
2021/11/24 09:18:08;;;;;;;3.72;1.38;;;16.00;79.90;;;;;;4061335;29;20052;-69
2021/11/24 09:20:32;;;;;;;2.17;1.20;;;15.90;79.90;;;;;;4060027;29;20143;-69
2021/11/24 09:22:55;;;;;;;2.35;1.45;;;15.90;80.00;;;;;;4058394;29;20050;-70
2021/11/24 09:25:20;;;;;;;1.35;1.25;;;15.80;80.10;;;;;;4062153;29;20055;-68
2021/11/24 09:27:47;;;;;;;1.25;0.90;;;15.80;80.20;;;;;;4062247;29;20047;-70
2021/11/24 09:30:10;;;;;;;12.20;3.70;;;15.80;80.40;;;;;;4061938;29;20111;-70
2021/11/24 09:32:32;;;;;;;1.67;1.20;;;15.70;80.40;;;;;;4062276;29;20047;-71
2021/11/24 09:34:55;;;;;;;1.20;1.20;;;15.70;80.30;;;;;;4062097;29;20384;-75
2021/11/24 09:37:17;;;;;;;5.57;2.42;;;15.60;80.60;;;;;;4063039;29;20052;-70
2021/11/24 09:39:39;;;;;;;1.58;1.20;;;15.60;81.30;;;;;;4062523;29;20134;-70
2021/11/24 09:42:04;;;;;;;1.83;1.10;;;15.60;81.20;;;;;;4063487;29;20567;-71
2021/11/24 09:44:28;;;;;;;2.20;0.85;;;15.60;81.20;;;;;;4062273;29;20050;-70
2021/11/24 09:46:51;;;;;;;2.42;1.30;;;15.60;81.30;;;;;;4050095;29;20048;-70
2021/11/24 09:49:15;;;;;;;3.72;1.40;;;15.60;81.50;;;;;;4063024;29;20130;-70
2021/11/24 09:51:40;;;;;;;2.90;1.58;;;15.60;81.60;;;;;;4062091;29;20147;-70
2021/11/24 09:54:03;;;;;;;2.97;1.13;;;15.50;81.90;;;;;;4062413;29;20083;-71
2021/11/24 09:56:26;;;;;;;2.60;1.23;;;15.50;82.10;;;;;;4062364;29;20472;-71
2021/11/24 09:59:02;;;;;;;1.33;1.20;;;15.50;82.50;;;;;;4061744;29;20131;-71
2021/11/24 10:01:24;;;;;;;3.42;1.30;;;15.50;83.90;;;;;;4061774;29;20497;-69
2021/11/24 10:03:46;;;;;;;1.98;0.95;;;15.50;83.00;;;;;;4062761;29;20052;-70
2021/11/24 10:06:08;;;;;;;2.38;1.15;;;15.60;82.90;;;;;;4061928;29;20500;-70
2021/11/24 10:08:52;;;;;;;4.07;1.30;;;15.60;82.60;;;;;;4061904;29;20044;-70
2021/11/24 10:11:14;;;;;;;3.88;1.38;;;15.60;82.40;;;;;;4061913;29;20357;-71
2021/11/24 10:13:37;;;;;;;1.27;1.10;;;15.60;82.50;;;;;;4061986;29;20103;-70
2021/11/24 10:15:59;;;;;;;2.83;1.70;;;15.60;82.50;;;;;;4062078;29;20044;-70
2021/11/24 10:18:23;;;;;;;2.25;1.10;;;15.60;82.50;;;;;;4062074;29;20453;-70
2021/11/24 10:20:48;;;;;;;2.58;1.50;;;15.60;82.40;;;;;;4062680;29;20388;-70
2021/11/24 10:23:23;;;;;;;1.08;1.08;;;15.60;82.60;;;;;;4061942;29;20044;-71
2021/11/24 10:25:47;;;;;;;3.03;1.10;;;15.60;82.50;;;;;;4047242;29;20048;-71
2021/11/24 10:28:28;;;;;;;0.95;0.95;;;15.60;82.60;;;;;;4062059;29;20051;-72
2021/11/24 10:30:54;;;;;;;1.10;1.00;;;15.60;82.10;;;;;;4061788;29;20159;-71
2021/11/24 10:33:17;;;;;;;3.10;1.85;;;15.60;82.70;;;;;;4062140;29;20184;-71
2021/11/24 10:35:39;;;;;;;2.97;1.05;;;15.60;82.70;;;;;;4062018;29;20048;-71
2021/11/24 10:38:15;;;;;;;3.38;1.48;;;15.60;82.60;;;;;;4045224;29;20076;-71
2021/11/24 10:40:41;;;;;;;3.95;1.77;;;15.50;82.30;;;;;;4045933;29;20052;-70
2021/11/24 10:43:13;;;;;;;3.50;1.30;;;15.50;82.90;;;;;;4031427;29;20139;-71
2021/11/24 10:45:35;;;;;;;;;;;15.50;82.90;;;;;;4061529;29;20075;-70
2021/11/24 10:47:58;;;;;;;2.92;1.27;;;15.50;83.10;;;;;;4066917;29;20397;-69
2021/11/24 10:50:22;;;;;;;1.63;1.25;;;15.40;83.60;;;;;;4066176;29;20059;-69
2021/11/24 10:52:57;;;;;;;1.02;1.00;;;15.40;83.50;;;;;;4053508;29;20111;-71
2021/11/24 10:55:26;;;;;;;1.30;1.20;;;15.40;83.70;;;;;;4066476;29;20046;-69
2021/11/24 10:58:00;;;;;;;2.63;1.60;;;15.40;83.70;;;;;;4060372;29;20052;-69
2021/11/24 11:00:23;;;;;;;3.92;1.38;;;15.40;83.50;;;;;;4062302;29;20067;-68
2021/11/24 11:02:46;;;;;;;3.00;1.75;;;15.40;84.00;;;;;;4071847;29;20194;-68
2021/11/24 11:05:17;;;;;;;1.40;1.30;;;15.40;84.10;;;;;;4064550;29;20476;-68
2021/11/24 11:07:41;;;;;;;1.52;1.42;;;15.30;84.00;;;;;;4056617;29;20043;-69
2021/11/24 11:10:10;;;;;;;3.88;1.60;;;15.40;84.90;;;;;;4061888;29;20056;-70
2021/11/24 11:12:33;;;;;;;2.28;1.27;;;15.30;83.90;;;;;;4065271;29;20099;-69
2021/11/24 11:14:55;;;;;;;2.90;1.40;;;15.30;83.90;;;;;;4063542;29;20048;-69
2021/11/24 11:17:19;;;;;;;1.33;1.23;;;15.30;83.80;;;;;;4064739;29;20060;-69
2021/11/24 11:19:42;;;;;;;3.42;1.75;;;15.30;83.70;;;;;;4063164;29;20100;-69
2021/11/24 11:22:05;;;;;;;4.85;1.48;;;15.30;83.70;;;;;;4063892;29;20452;-69
2021/11/24 11:24:28;;;;;;;1.83;1.70;;;15.30;83.80;;;;;;4063833;29;20563;-69
2021/11/24 11:26:50;;;;;;;2.70;2.00;;;15.30;83.80;;;;;;4064181;29;20044;-70
2021/11/24 11:29:14;;;;;;;1.60;1.50;;;15.20;83.70;;;;;;4064262;29;20067;-69
2021/11/24 11:31:37;;;;;;;4.38;2.08;;;15.20;83.80;;;;;;4064126;29;20055;-69
2021/11/24 11:34:02;;;;;;;2.47;1.58;;;15.20;83.80;;;;;;4061514;29;20048;-69
2021/11/24 11:36:25;;;;;;;1.77;1.52;;;15.20;83.70;;;;;;4063083;29;20170;-69
2021/11/24 11:38:49;;;;;;;2.30;1.33;;;15.20;83.70;;;;;;4064325;29;20044;-70
2021/11/24 11:41:13;;;;;;;2.75;2.10;;;15.20;83.80;;;;;;4064469;29;20048;-69
2021/11/24 11:43:56;;;;;;;2.28;1.55;;;15.10;83.90;;;;;;4078102;29;20499;-70
2021/11/24 11:46:44;;;;;;;3.67;1.70;;;15.10;84.00;;;;;;4059184;29;20068;-69
2021/11/24 11:49:13;;;;;;;2.15;1.88;;;15.10;83.90;;;;;;4077738;29;20051;-70
2021/11/24 11:51:38;;;;;;;2.30;1.88;;;15.10;83.80;;;;;;4079877;29;20056;-69
2021/11/24 11:54:01;;;;;;;5.10;2.10;;;15.10;83.70;;;;;;4058518;29;20515;-68
2021/11/24 11:56:24;;;;;;;1.55;1.45;;;15.10;83.80;;;;;;4050151;29;20072;-69
2021/11/24 11:58:53;;;;;;;2.70;1.83;;;15.10;84.00;;;;;;4070833;29;20055;-69
2021/11/24 12:01:17;;;;;;;3.25;1.65;;;15.10;83.80;;;;;;4079697;29;20212;-70
2021/11/24 12:04:02;;;;;;;5.05;1.83;;;15.00;84.00;;;;;;4066100;29;20071;-70
2021/11/24 12:06:28;;;;;;;2.30;1.52;;;15.00;83.50;;;;;;4064014;29;20044;-68
2021/11/24 12:09:15;;;;;;;2.22;1.67;;;15.00;84.00;;;;;;4064381;29;20067;-69
2021/11/24 12:12:22;;;;;;;1.70;1.60;;;15.00;83.50;;;;;;4049850;29;20049;-70
2021/11/24 12:14:54;;;;;;;5.07;1.98;;;15.00;83.70;;;;;;4054891;29;20052;-70
2021/11/24 12:17:48;;;;;;;3.70;2.00;;;14.90;84.40;;;;;;4062793;29;20392;-70
2021/11/24 12:20:43;;;;;;;2.35;2.00;;;14.90;84.10;;;;;;4061604;29;20485;-70
2021/11/24 12:23:27;;;;;;;2.60;1.85;;;14.90;84.00;;;;;;4061402;29;20048;-72
2021/11/24 12:25:50;;;;;;;2.80;2.28;;;14.90;84.70;;;;;;4060851;29;20439;-71
2021/11/24 12:28:14;;;;;;;4.60;2.10;;;14.90;84.60;;;;;;4061442;29;20051;-68
2021/11/24 12:30:56;;;;;;;3.65;1.90;;;14.80;84.60;;;;;;4061573;29;20453;-69